sensor_id;sensor_type;location;lat;lon;timestamp;temperature;humidity
29731;DHT22;16639;51.488;0.152;2023-05-14T00:01:59;11.50;99.90
29731;DHT22;16639;51.488;0.152;2023-05-14T00:04:26;11.70;99.90
29731;DHT22;16639;51.488;0.152;2023-05-14T00:06:54;11.70;99.90
29731;DHT22;16639;51.488;0.152;2023-05-14T00:09:21;11.70;99.90
29731;DHT22;16639;51.488;0.152;2023-05-14T00:11:49;11.70;99.90
29731;DHT22;16639;51.488;0.152;2023-05-14T00:14:16;11.80;99.90
29731;DHT22;16639;51.488;0.152;2023-05-14T00:16:44;11.80;99.90
29731;DHT22;16639;51.488;0.152;2023-05-14T00:19:11;11.80;99.90
29731;DHT22;16639;51.488;0.152;2023-05-14T00:21:39;11.80;99.90
29731;DHT22;16639;51.488;0.152;2023-05-14T00:24:07;11.80;99.90
29731;DHT22;16639;51.488;0.152;2023-05-14T00:26:34;11.70;99.90
29731;DHT22;16639;51.488;0.152;2023-05-14T00:29:01;11.70;99.90
29731;DHT22;16639;51.488;0.152;2023-05-14T00:31:29;11.60;99.90
29731;DHT22;16639;51.488;0.152;2023-05-14T00:33:56;11.60;99.90
29731;DHT22;16639;51.488;0.152;2023-05-14T00:36:24;11.60;99.90
29731;DHT22;16639;51.488;0.152;2023-05-14T00:38:51;11.70;99.90
29731;DHT22;16639;51.488;0.152;2023-05-14T00:41:19;11.60;99.90
29731;DHT22;16639;51.488;0.152;2023-05-14T00:43:47;11.60;99.90
29731;DHT22;16639;51.488;0.152;2023-05-14T00:46:15;11.60;99.90
29731;DHT22;16639;51.488;0.152;2023-05-14T00:48:43;11.60;99.90
29731;DHT22;16639;51.488;0.152;2023-05-14T00:51:11;12.40;99.90
29731;DHT22;16639;51.488;0.152;2023-05-14T00:53:38;12.10;99.90
29731;DHT22;16639;51.488;0.152;2023-05-14T00:56:06;11.50;99.90
29731;DHT22;16639;51.488;0.152;2023-05-14T00:58:34;11.60;99.90
29731;DHT22;16639;51.488;0.152;2023-05-14T01:01:01;11.50;99.90
29731;DHT22;16639;51.488;0.152;2023-05-14T01:03:30;11.50;99.90
29731;DHT22;16639;51.488;0.152;2023-05-14T01:06:16;11.50;99.90
29731;DHT22;16639;51.488;0.152;2023-05-14T01:09:02;11.10;99.90
29731;DHT22;16639;51.488;0.152;2023-05-14T01:15:13;11.40;99.90
29731;DHT22;16639;51.488;0.152;2023-05-14T01:17:46;11.30;99.90
29731;DHT22;16639;51.488;0.152;2023-05-14T01:20:15;11.40;99.90
29731;DHT22;16639;51.488;0.152;2023-05-14T01:22:42;11.40;99.90
29731;DHT22;16639;51.488;0.152;2023-05-14T01:25:10;11.40;99.90
29731;DHT22;16639;51.488;0.152;2023-05-14T01:28:19;11.40;99.90
29731;DHT22;16639;51.488;0.152;2023-05-14T01:30:56;11.40;99.90
29731;DHT22;16639;51.488;0.152;2023-05-14T01:33:28;11.30;99.90
29731;DHT22;16639;51.488;0.152;2023-05-14T01:35:55;11.40;99.90
29731;DHT22;16639;51.488;0.152;2023-05-14T01:38:24;11.30;99.90
29731;DHT22;16639;51.488;0.152;2023-05-14T01:40:54;11.40;99.90
29731;DHT22;16639;51.488;0.152;2023-05-14T01:43:22;11.40;99.90
29731;DHT22;16639;51.488;0.152;2023-05-14T01:45:50;11.40;99.90
29731;DHT22;16639;51.488;0.152;2023-05-14T01:48:17;11.30;99.90
29731;DHT22;16639;51.488;0.152;2023-05-14T01:50:45;11.40;99.90
29731;DHT22;16639;51.488;0.152;2023-05-14T01:53:12;12.00;99.90
29731;DHT22;16639;51.488;0.152;2023-05-14T01:55:39;11.30;99.90
29731;DHT22;16639;51.488;0.152;2023-05-14T01:58:07;11.30;99.90
29731;DHT22;16639;51.488;0.152;2023-05-14T02:00:34;11.30;99.90
29731;DHT22;16639;51.488;0.152;2023-05-14T02:03:02;11.30;99.90
29731;DHT22;16639;51.488;0.152;2023-05-14T02:05:30;11.30;99.90
29731;DHT22;16639;51.488;0.152;2023-05-14T02:07:58;11.30;99.90
29731;DHT22;16639;51.488;0.152;2023-05-14T02:10:25;11.50;99.90
29731;DHT22;16639;51.488;0.152;2023-05-14T02:12:52;11.20;99.90
29731;DHT22;16639;51.488;0.152;2023-05-14T02:15:20;11.20;99.90
29731;DHT22;16639;51.488;0.152;2023-05-14T02:17:47;11.20;99.90
29731;DHT22;16639;51.488;0.152;2023-05-14T02:20:14;11.60;99.90
29731;DHT22;16639;51.488;0.152;2023-05-14T02:22:42;11.20;99.90
29731;DHT22;16639;51.488;0.152;2023-05-14T02:25:11;11.30;99.90
29731;DHT22;16639;51.488;0.152;2023-05-14T02:27:39;11.30;99.90
29731;DHT22;16639;51.488;0.152;2023-05-14T02:30:07;11.30;99.90
29731;DHT22;16639;51.488;0.152;2023-05-14T02:32:34;11.30;99.90
29731;DHT22;16639;51.488;0.152;2023-05-14T02:35:02;11.30;99.90
29731;DHT22;16639;51.488;0.152;2023-05-14T02:37:29;11.20;99.90
29731;DHT22;16639;51.488;0.152;2023-05-14T02:39:57;11.20;99.90
29731;DHT22;16639;51.488;0.152;2023-05-14T02:42:24;11.10;99.90
29731;DHT22;16639;51.488;0.152;2023-05-14T02:44:51;11.50;99.90
29731;DHT22;16639;51.488;0.152;2023-05-14T02:47:19;11.10;99.90
29731;DHT22;16639;51.488;0.152;2023-05-14T02:49:46;11.10;99.90
29731;DHT22;16639;51.488;0.152;2023-05-14T02:52:14;10.50;99.90
29731;DHT22;16639;51.488;0.152;2023-05-14T02:54:41;11.00;99.90
29731;DHT22;16639;51.488;0.152;2023-05-14T02:57:09;11.00;99.90
29731;DHT22;16639;51.488;0.152;2023-05-14T02:59:36;11.00;99.90
29731;DHT22;16639;51.488;0.152;2023-05-14T03:02:05;10.90;99.90
29731;DHT22;16639;51.488;0.152;2023-05-14T03:04:33;11.00;99.90
29731;DHT22;16639;51.488;0.152;2023-05-14T03:07:00;10.90;99.90
29731;DHT22;16639;51.488;0.152;2023-05-14T03:09:28;10.90;99.90
29731;DHT22;16639;51.488;0.152;2023-05-14T03:11:55;11.50;99.90
29731;DHT22;16639;51.488;0.152;2023-05-14T03:14:23;11.00;99.90
29731;DHT22;16639;51.488;0.152;2023-05-14T03:16:50;11.00;99.90
29731;DHT22;16639;51.488;0.152;2023-05-14T03:19:18;10.60;99.90
29731;DHT22;16639;51.488;0.152;2023-05-14T03:21:45;10.90;99.90
29731;DHT22;16639;51.488;0.152;2023-05-14T03:24:12;10.90;99.90
29731;DHT22;16639;51.488;0.152;2023-05-14T03:26:40;10.90;99.90
29731;DHT22;16639;51.488;0.152;2023-05-14T03:29:07;10.90;99.90
29731;DHT22;16639;51.488;0.152;2023-05-14T03:31:36;10.90;99.90
29731;DHT22;16639;51.488;0.152;2023-05-14T03:34:04;11.00;99.90
29731;DHT22;16639;51.488;0.152;2023-05-14T03:36:31;11.00;99.90
29731;DHT22;16639;51.488;0.152;2023-05-14T03:39:00;10.90;99.90
29731;DHT22;16639;51.488;0.152;2023-05-14T03:41:30;11.00;99.90
29731;DHT22;16639;51.488;0.152;2023-05-14T03:43:57;11.00;99.90
29731;DHT22;16639;51.488;0.152;2023-05-14T03:46:24;11.90;99.90
29731;DHT22;16639;51.488;0.152;2023-05-14T03:48:52;11.00;99.90
29731;DHT22;16639;51.488;0.152;2023-05-14T03:51:19;11.00;99.90
29731;DHT22;16639;51.488;0.152;2023-05-14T03:53:47;11.10;99.90
29731;DHT22;16639;51.488;0.152;2023-05-14T03:56:14;11.00;99.90
29731;DHT22;16639;51.488;0.152;2023-05-14T03:58:42;11.00;99.90
29731;DHT22;16639;51.488;0.152;2023-05-14T04:01:09;11.00;99.90
29731;DHT22;16639;51.488;0.152;2023-05-14T04:03:37;11.00;99.90
29731;DHT22;16639;51.488;0.152;2023-05-14T04:06:04;11.00;99.90
29731;DHT22;16639;51.488;0.152;2023-05-14T04:08:32;11.00;99.90
29731;DHT22;16639;51.488;0.152;2023-05-14T04:10:59;10.90;99.90
29731;DHT22;16639;51.488;0.152;2023-05-14T04:13:26;10.90;99.90
29731;DHT22;16639;51.488;0.152;2023-05-14T04:15:54;10.90;99.90
29731;DHT22;16639;51.488;0.152;2023-05-14T04:18:23;10.80;99.90
29731;DHT22;16639;51.488;0.152;2023-05-14T04:20:54;10.80;99.90
29731;DHT22;16639;51.488;0.152;2023-05-14T04:23:21;10.80;99.90
29731;DHT22;16639;51.488;0.152;2023-05-14T04:25:49;10.80;99.90
29731;DHT22;16639;51.488;0.152;2023-05-14T04:28:16;10.70;99.90
29731;DHT22;16639;51.488;0.152;2023-05-14T04:30:44;10.70;99.90
29731;DHT22;16639;51.488;0.152;2023-05-14T04:33:12;10.80;99.90
29731;DHT22;16639;51.488;0.152;2023-05-14T04:35:39;10.80;99.90
29731;DHT22;16639;51.488;0.152;2023-05-14T04:38:07;10.70;99.90
29731;DHT22;16639;51.488;0.152;2023-05-14T04:40:35;10.70;99.90
29731;DHT22;16639;51.488;0.152;2023-05-14T04:43:02;10.70;99.90
29731;DHT22;16639;51.488;0.152;2023-05-14T04:45:31;10.70;99.90
29731;DHT22;16639;51.488;0.152;2023-05-14T04:48:01;10.60;99.90
29731;DHT22;16639;51.488;0.152;2023-05-14T04:50:30;10.70;99.90
29731;DHT22;16639;51.488;0.152;2023-05-14T04:52:58;10.70;99.90
29731;DHT22;16639;51.488;0.152;2023-05-14T04:55:26;10.70;99.90
29731;DHT22;16639;51.488;0.152;2023-05-14T04:57:53;10.70;99.90
29731;DHT22;16639;51.488;0.152;2023-05-14T05:00:21;10.70;99.90
29731;DHT22;16639;51.488;0.152;2023-05-14T05:02:49;10.70;99.90
29731;DHT22;16639;51.488;0.152;2023-05-14T05:05:17;10.70;99.90
29731;DHT22;16639;51.488;0.152;2023-05-14T05:07:44;10.80;99.90
29731;DHT22;16639;51.488;0.152;2023-05-14T05:10:12;10.70;99.90
29731;DHT22;16639;51.488;0.152;2023-05-14T05:12:40;11.10;99.90
29731;DHT22;16639;51.488;0.152;2023-05-14T05:15:08;10.70;99.90
29731;DHT22;16639;51.488;0.152;2023-05-14T05:17:35;10.70;99.90
29731;DHT22;16639;51.488;0.152;2023-05-14T05:20:03;10.70;99.90
29731;DHT22;16639;51.488;0.152;2023-05-14T05:22:34;10.70;99.90
29731;DHT22;16639;51.488;0.152;2023-05-14T05:25:02;10.70;99.90
29731;DHT22;16639;51.488;0.152;2023-05-14T05:27:32;10.70;99.90
29731;DHT22;16639;51.488;0.152;2023-05-14T05:30:00;10.70;99.90
29731;DHT22;16639;51.488;0.152;2023-05-14T05:32:28;10.70;99.90
29731;DHT22;16639;51.488;0.152;2023-05-14T05:34:56;10.60;99.90
29731;DHT22;16639;51.488;0.152;2023-05-14T05:37:23;10.60;99.90
29731;DHT22;16639;51.488;0.152;2023-05-14T05:39:50;10.60;99.90
29731;DHT22;16639;51.488;0.152;2023-05-14T05:42:18;10.60;99.90
29731;DHT22;16639;51.488;0.152;2023-05-14T05:44:45;10.50;99.90
29731;DHT22;16639;51.488;0.152;2023-05-14T05:47:13;10.60;99.90
29731;DHT22;16639;51.488;0.152;2023-05-14T05:49:40;10.70;99.90
29731;DHT22;16639;51.488;0.152;2023-05-14T05:52:07;10.70;99.90
29731;DHT22;16639;51.488;0.152;2023-05-14T05:54:35;10.70;99.90
29731;DHT22;16639;51.488;0.152;2023-05-14T05:57:02;10.70;99.90
29731;DHT22;16639;51.488;0.152;2023-05-14T05:59:31;10.70;99.90
29731;DHT22;16639;51.488;0.152;2023-05-14T06:01:58;10.70;99.90
29731;DHT22;16639;51.488;0.152;2023-05-14T06:04:26;10.60;99.90
29731;DHT22;16639;51.488;0.152;2023-05-14T06:06:54;10.60;99.90
29731;DHT22;16639;51.488;0.152;2023-05-14T06:09:22;10.60;99.90
29731;DHT22;16639;51.488;0.152;2023-05-14T06:11:51;10.70;99.90
29731;DHT22;16639;51.488;0.152;2023-05-14T06:14:18;10.60;99.90
29731;DHT22;16639;51.488;0.152;2023-05-14T06:16:45;10.70;99.90
29731;DHT22;16639;51.488;0.152;2023-05-14T06:19:13;10.70;99.90
29731;DHT22;16639;51.488;0.152;2023-05-14T06:21:41;10.70;99.90
29731;DHT22;16639;51.488;0.152;2023-05-14T06:24:08;11.40;99.90
29731;DHT22;16639;51.488;0.152;2023-05-14T06:26:37;10.70;99.90
29731;DHT22;16639;51.488;0.152;2023-05-14T06:29:04;10.70;99.90
29731;DHT22;16639;51.488;0.152;2023-05-14T06:31:32;10.80;99.90
29731;DHT22;16639;51.488;0.152;2023-05-14T06:33:59;11.10;99.90
29731;DHT22;16639;51.488;0.152;2023-05-14T06:36:27;10.80;99.90
29731;DHT22;16639;51.488;0.152;2023-05-14T06:38:54;10.80;99.90
29731;DHT22;16639;51.488;0.152;2023-05-14T06:41:22;10.70;99.90
29731;DHT22;16639;51.488;0.152;2023-05-14T06:43:49;10.80;99.90
29731;DHT22;16639;51.488;0.152;2023-05-14T06:46:17;10.80;99.90
29731;DHT22;16639;51.488;0.152;2023-05-14T06:48:44;10.80;99.90
29731;DHT22;16639;51.488;0.152;2023-05-14T06:51:11;10.90;99.90
29731;DHT22;16639;51.488;0.152;2023-05-14T06:53:40;10.90;99.90
29731;DHT22;16639;51.488;0.152;2023-05-14T06:56:07;11.00;99.90
29731;DHT22;16639;51.488;0.152;2023-05-14T06:58:35;11.00;99.90
29731;DHT22;16639;51.488;0.152;2023-05-14T07:01:03;11.10;99.90
29731;DHT22;16639;51.488;0.152;2023-05-14T07:03:32;11.10;99.90
29731;DHT22;16639;51.488;0.152;2023-05-14T07:06:00;11.20;99.90
29731;DHT22;16639;51.488;0.152;2023-05-14T07:08:27;11.30;99.90
29731;DHT22;16639;51.488;0.152;2023-05-14T07:10:54;11.30;99.90
29731;DHT22;16639;51.488;0.152;2023-05-14T07:13:23;11.30;99.90
29731;DHT22;16639;51.488;0.152;2023-05-14T07:15:54;11.30;99.90
29731;DHT22;16639;51.488;0.152;2023-05-14T07:18:22;11.20;99.90
29731;DHT22;16639;51.488;0.152;2023-05-14T07:20:50;11.30;99.90
29731;DHT22;16639;51.488;0.152;2023-05-14T07:23:17;11.40;99.90
29731;DHT22;16639;51.488;0.152;2023-05-14T07:25:46;11.30;99.90
29731;DHT22;16639;51.488;0.152;2023-05-14T07:28:13;11.30;99.90
29731;DHT22;16639;51.488;0.152;2023-05-14T07:30:40;11.30;99.90
29731;DHT22;16639;51.488;0.152;2023-05-14T07:33:08;11.40;99.90
29731;DHT22;16639;51.488;0.152;2023-05-14T07:35:36;11.40;99.90
29731;DHT22;16639;51.488;0.152;2023-05-14T07:38:03;11.50;99.90
29731;DHT22;16639;51.488;0.152;2023-05-14T07:40:32;11.50;99.90
29731;DHT22;16639;51.488;0.152;2023-05-14T07:42:59;11.50;99.90
29731;DHT22;16639;51.488;0.152;2023-05-14T07:45:27;11.50;99.90
29731;DHT22;16639;51.488;0.152;2023-05-14T07:47:54;11.40;99.90
29731;DHT22;16639;51.488;0.152;2023-05-14T07:50:22;11.50;99.90
29731;DHT22;16639;51.488;0.152;2023-05-14T07:52:50;11.50;99.90
29731;DHT22;16639;51.488;0.152;2023-05-14T07:55:18;11.60;99.90
29731;DHT22;16639;51.488;0.152;2023-05-14T07:57:45;11.80;99.90
29731;DHT22;16639;51.488;0.152;2023-05-14T08:00:13;11.10;99.90
29731;DHT22;16639;51.488;0.152;2023-05-14T08:02:40;11.70;99.90
29731;DHT22;16639;51.488;0.152;2023-05-14T08:05:09;11.80;99.90
29731;DHT22;16639;51.488;0.152;2023-05-14T08:07:36;11.70;99.90
29731;DHT22;16639;51.488;0.152;2023-05-14T08:10:04;11.70;99.90
29731;DHT22;16639;51.488;0.152;2023-05-14T08:12:33;11.80;99.90
29731;DHT22;16639;51.488;0.152;2023-05-14T08:15:00;11.90;99.90
29731;DHT22;16639;51.488;0.152;2023-05-14T08:17:28;11.80;99.90
29731;DHT22;16639;51.488;0.152;2023-05-14T08:19:56;11.90;99.90
29731;DHT22;16639;51.488;0.152;2023-05-14T08:22:23;11.90;99.90
29731;DHT22;16639;51.488;0.152;2023-05-14T08:24:51;11.90;99.90
29731;DHT22;16639;51.488;0.152;2023-05-14T08:27:18;11.90;99.90
29731;DHT22;16639;51.488;0.152;2023-05-14T08:29:46;12.00;99.90
29731;DHT22;16639;51.488;0.152;2023-05-14T08:32:13;12.10;99.90
29731;DHT22;16639;51.488;0.152;2023-05-14T08:34:49;12.10;99.90
29731;DHT22;16639;51.488;0.152;2023-05-14T08:37:18;12.10;99.90
29731;DHT22;16639;51.488;0.152;2023-05-14T08:39:48;12.20;99.90
29731;DHT22;16639;51.488;0.152;2023-05-14T08:42:19;12.20;99.90
29731;DHT22;16639;51.488;0.152;2023-05-14T08:44:48;12.20;99.90
29731;DHT22;16639;51.488;0.152;2023-05-14T08:47:20;12.30;99.90
29731;DHT22;16639;51.488;0.152;2023-05-14T08:49:57;12.30;99.90
29731;DHT22;16639;51.488;0.152;2023-05-14T08:52:27;12.30;99.90
29731;DHT22;16639;51.488;0.152;2023-05-14T08:54:55;12.30;99.90
29731;DHT22;16639;51.488;0.152;2023-05-14T08:57:24;12.40;99.90
29731;DHT22;16639;51.488;0.152;2023-05-14T08:59:52;12.30;99.90
29731;DHT22;16639;51.488;0.152;2023-05-14T09:02:22;12.40;99.90
29731;DHT22;16639;51.488;0.152;2023-05-14T09:04:55;12.50;99.90
29731;DHT22;16639;51.488;0.152;2023-05-14T09:07:23;12.60;99.90
29731;DHT22;16639;51.488;0.152;2023-05-14T09:09:53;12.60;99.90
29731;DHT22;16639;51.488;0.152;2023-05-14T09:12:21;12.70;99.90
29731;DHT22;16639;51.488;0.152;2023-05-14T09:14:49;12.70;99.90
29731;DHT22;16639;51.488;0.152;2023-05-14T09:17:18;12.70;99.90
29731;DHT22;16639;51.488;0.152;2023-05-14T09:19:46;12.60;99.90
29731;DHT22;16639;51.488;0.152;2023-05-14T09:22:16;12.60;99.90
29731;DHT22;16639;51.488;0.152;2023-05-14T09:24:45;12.60;99.90
29731;DHT22;16639;51.488;0.152;2023-05-14T09:27:18;12.40;99.90
29731;DHT22;16639;51.488;0.152;2023-05-14T09:29:47;12.80;99.90
29731;DHT22;16639;51.488;0.152;2023-05-14T09:32:14;12.90;99.90
29731;DHT22;16639;51.488;0.152;2023-05-14T09:34:42;12.80;99.90
29731;DHT22;16639;51.488;0.152;2023-05-14T09:37:09;12.90;99.90
29731;DHT22;16639;51.488;0.152;2023-05-14T09:39:37;13.00;99.90
29731;DHT22;16639;51.488;0.152;2023-05-14T09:42:05;13.10;99.90
29731;DHT22;16639;51.488;0.152;2023-05-14T09:44:33;12.90;99.90
29731;DHT22;16639;51.488;0.152;2023-05-14T09:47:02;13.20;99.90
29731;DHT22;16639;51.488;0.152;2023-05-14T09:49:30;13.30;99.90
29731;DHT22;16639;51.488;0.152;2023-05-14T09:51:57;13.30;99.90
29731;DHT22;16639;51.488;0.152;2023-05-14T09:54:25;13.40;99.90
29731;DHT22;16639;51.488;0.152;2023-05-14T09:56:53;13.40;99.90
29731;DHT22;16639;51.488;0.152;2023-05-14T09:59:22;13.40;99.90
29731;DHT22;16639;51.488;0.152;2023-05-14T10:01:52;13.40;99.90
29731;DHT22;16639;51.488;0.152;2023-05-14T10:04:21;13.30;99.90
29731;DHT22;16639;51.488;0.152;2023-05-14T10:06:50;13.30;99.90
29731;DHT22;16639;51.488;0.152;2023-05-14T10:09:20;13.20;99.90
29731;DHT22;16639;51.488;0.152;2023-05-14T10:11:52;13.30;99.90
29731;DHT22;16639;51.488;0.152;2023-05-14T10:14:35;13.30;99.90
29731;DHT22;16639;51.488;0.152;2023-05-14T10:17:05;13.40;99.90
29731;DHT22;16639;51.488;0.152;2023-05-14T10:19:36;13.40;99.90
29731;DHT22;16639;51.488;0.152;2023-05-14T10:22:07;13.40;99.90
29731;DHT22;16639;51.488;0.152;2023-05-14T10:24:37;13.30;99.90
29731;DHT22;16639;51.488;0.152;2023-05-14T10:27:05;13.40;99.90
29731;DHT22;16639;51.488;0.152;2023-05-14T10:29:34;13.40;99.90
29731;DHT22;16639;51.488;0.152;2023-05-14T10:32:04;13.40;99.90
29731;DHT22;16639;51.488;0.152;2023-05-14T10:34:37;13.40;99.90
29731;DHT22;16639;51.488;0.152;2023-05-14T10:37:19;13.40;99.90
29731;DHT22;16639;51.488;0.152;2023-05-14T10:42:28;13.40;99.90
29731;DHT22;16639;51.488;0.152;2023-05-14T10:45:06;13.40;99.90
29731;DHT22;16639;51.488;0.152;2023-05-14T10:47:36;13.30;99.90
29731;DHT22;16639;51.488;0.152;2023-05-14T10:50:06;13.30;99.90
29731;DHT22;16639;51.488;0.152;2023-05-14T10:52:34;13.30;99.90
29731;DHT22;16639;51.488;0.152;2023-05-14T10:55:04;13.30;99.90
29731;DHT22;16639;51.488;0.152;2023-05-14T10:57:36;13.30;99.90
29731;DHT22;16639;51.488;0.152;2023-05-14T11:00:05;13.30;99.90
29731;DHT22;16639;51.488;0.152;2023-05-14T11:02:39;13.40;99.90
29731;DHT22;16639;51.488;0.152;2023-05-14T11:05:12;13.40;99.90
29731;DHT22;16639;51.488;0.152;2023-05-14T11:07:44;13.50;99.90
29731;DHT22;16639;51.488;0.152;2023-05-14T11:10:13;13.50;99.90
29731;DHT22;16639;51.488;0.152;2023-05-14T11:12:43;13.50;99.90
29731;DHT22;16639;51.488;0.152;2023-05-14T11:15:13;13.50;99.90
29731;DHT22;16639;51.488;0.152;2023-05-14T11:17:42;13.50;99.90
29731;DHT22;16639;51.488;0.152;2023-05-14T11:20:11;13.80;99.90
29731;DHT22;16639;51.488;0.152;2023-05-14T11:22:40;13.60;99.90
29731;DHT22;16639;51.488;0.152;2023-05-14T11:25:08;13.60;99.90
29731;DHT22;16639;51.488;0.152;2023-05-14T11:27:39;13.60;99.90
29731;DHT22;16639;51.488;0.152;2023-05-14T11:30:17;13.70;99.90
29731;DHT22;16639;51.488;0.152;2023-05-14T11:32:46;13.70;99.90
29731;DHT22;16639;51.488;0.152;2023-05-14T11:35:17;13.70;99.90
29731;DHT22;16639;51.488;0.152;2023-05-14T11:37:51;13.80;99.90
29731;DHT22;16639;51.488;0.152;2023-05-14T11:40:19;13.40;99.90
29731;DHT22;16639;51.488;0.152;2023-05-14T11:42:50;13.80;99.90
29731;DHT22;16639;51.488;0.152;2023-05-14T11:45:28;13.90;99.90
29731;DHT22;16639;51.488;0.152;2023-05-14T11:47:56;13.90;99.90
29731;DHT22;16639;51.488;0.152;2023-05-14T11:50:24;14.00;99.90
29731;DHT22;16639;51.488;0.152;2023-05-14T11:52:56;14.00;99.90
29731;DHT22;16639;51.488;0.152;2023-05-14T11:55:23;14.10;99.90
29731;DHT22;16639;51.488;0.152;2023-05-14T11:57:51;14.10;99.90
29731;DHT22;16639;51.488;0.152;2023-05-14T12:00:18;14.00;99.90
29731;DHT22;16639;51.488;0.152;2023-05-14T12:02:48;14.10;99.90
29731;DHT22;16639;51.488;0.152;2023-05-14T12:05:17;14.10;99.90
29731;DHT22;16639;51.488;0.152;2023-05-14T12:07:44;14.10;99.90
29731;DHT22;16639;51.488;0.152;2023-05-14T12:10:12;14.10;99.90
29731;DHT22;16639;51.488;0.152;2023-05-14T12:12:44;14.10;99.90
29731;DHT22;16639;51.488;0.152;2023-05-14T12:15:13;14.20;99.90
29731;DHT22;16639;51.488;0.152;2023-05-14T12:17:49;14.30;99.90
29731;DHT22;16639;51.488;0.152;2023-05-14T12:20:18;14.20;99.90
29731;DHT22;16639;51.488;0.152;2023-05-14T12:22:45;14.30;99.90
29731;DHT22;16639;51.488;0.152;2023-05-14T12:25:13;14.40;99.90
29731;DHT22;16639;51.488;0.152;2023-05-14T12:27:43;14.40;99.90
29731;DHT22;16639;51.488;0.152;2023-05-14T12:30:12;14.50;99.90
29731;DHT22;16639;51.488;0.152;2023-05-14T12:32:48;14.40;99.90
29731;DHT22;16639;51.488;0.152;2023-05-14T12:35:20;14.70;99.90
29731;DHT22;16639;51.488;0.152;2023-05-14T12:37:49;14.60;99.90
29731;DHT22;16639;51.488;0.152;2023-05-14T12:40:16;14.60;99.90
29731;DHT22;16639;51.488;0.152;2023-05-14T12:42:44;14.80;99.90
29731;DHT22;16639;51.488;0.152;2023-05-14T12:45:11;14.40;99.90
29731;DHT22;16639;51.488;0.152;2023-05-14T12:47:39;14.90;99.90
29731;DHT22;16639;51.488;0.152;2023-05-14T12:50:06;14.90;99.90
29731;DHT22;16639;51.488;0.152;2023-05-14T12:52:34;15.00;99.90
29731;DHT22;16639;51.488;0.152;2023-05-14T12:55:06;15.10;99.90
29731;DHT22;16639;51.488;0.152;2023-05-14T12:57:35;15.10;99.90
29731;DHT22;16639;51.488;0.152;2023-05-14T13:00:03;15.50;99.90
29731;DHT22;16639;51.488;0.152;2023-05-14T13:02:33;15.20;99.90
29731;DHT22;16639;51.488;0.152;2023-05-14T13:05:10;15.30;99.90
29731;DHT22;16639;51.488;0.152;2023-05-14T13:07:38;15.30;99.90
29731;DHT22;16639;51.488;0.152;2023-05-14T13:10:06;15.40;99.90
29731;DHT22;16639;51.488;0.152;2023-05-14T13:12:34;15.40;99.90
29731;DHT22;16639;51.488;0.152;2023-05-14T13:15:01;15.50;99.90
29731;DHT22;16639;51.488;0.152;2023-05-14T13:17:29;15.60;99.90
29731;DHT22;16639;51.488;0.152;2023-05-14T13:19:56;15.40;99.90
29731;DHT22;16639;51.488;0.152;2023-05-14T13:22:24;15.80;99.90
29731;DHT22;16639;51.488;0.152;2023-05-14T13:24:51;15.60;99.90
29731;DHT22;16639;51.488;0.152;2023-05-14T13:27:19;15.90;99.90
29731;DHT22;16639;51.488;0.152;2023-05-14T13:29:46;16.00;99.90
29731;DHT22;16639;51.488;0.152;2023-05-14T13:32:13;16.10;99.90
29731;DHT22;16639;51.488;0.152;2023-05-14T13:34:41;16.10;99.90
29731;DHT22;16639;51.488;0.152;2023-05-14T13:37:10;16.10;99.90
29731;DHT22;16639;51.488;0.152;2023-05-14T13:39:37;16.20;99.90
29731;DHT22;16639;51.488;0.152;2023-05-14T13:42:07;16.20;99.90
29731;DHT22;16639;51.488;0.152;2023-05-14T13:44:34;16.20;99.90
29731;DHT22;16639;51.488;0.152;2023-05-14T13:47:02;16.70;99.90
29731;DHT22;16639;51.488;0.152;2023-05-14T13:49:30;16.30;99.90
29731;DHT22;16639;51.488;0.152;2023-05-14T13:51:57;16.40;99.90
29731;DHT22;16639;51.488;0.152;2023-05-14T13:54:25;16.50;99.90
29731;DHT22;16639;51.488;0.152;2023-05-14T13:56:52;16.50;99.90
29731;DHT22;16639;51.488;0.152;2023-05-14T13:59:20;16.60;99.90
29731;DHT22;16639;51.488;0.152;2023-05-14T14:01:48;17.10;99.90
29731;DHT22;16639;51.488;0.152;2023-05-14T14:04:16;16.70;99.90
29731;DHT22;16639;51.488;0.152;2023-05-14T14:06:43;16.80;99.90
29731;DHT22;16639;51.488;0.152;2023-05-14T14:09:12;16.90;99.90
29731;DHT22;16639;51.488;0.152;2023-05-14T14:11:40;16.90;99.90
29731;DHT22;16639;51.488;0.152;2023-05-14T14:14:07;17.00;99.90
29731;DHT22;16639;51.488;0.152;2023-05-14T14:16:34;17.10;99.90
29731;DHT22;16639;51.488;0.152;2023-05-14T14:19:02;17.10;99.90
29731;DHT22;16639;51.488;0.152;2023-05-14T14:21:30;17.10;99.90
29731;DHT22;16639;51.488;0.152;2023-05-14T14:23:58;17.10;99.90
29731;DHT22;16639;51.488;0.152;2023-05-14T14:26:25;17.20;99.90
29731;DHT22;16639;51.488;0.152;2023-05-14T14:28:54;17.20;99.90
29731;DHT22;16639;51.488;0.152;2023-05-14T14:31:21;17.20;99.90
29731;DHT22;16639;51.488;0.152;2023-05-14T14:33:51;17.30;99.90
29731;DHT22;16639;51.488;0.152;2023-05-14T14:36:19;17.30;99.90
29731;DHT22;16639;51.488;0.152;2023-05-14T14:38:47;17.40;99.90
29731;DHT22;16639;51.488;0.152;2023-05-14T14:41:14;17.40;99.90
29731;DHT22;16639;51.488;0.152;2023-05-14T14:43:42;17.50;99.90
29731;DHT22;16639;51.488;0.152;2023-05-14T14:46:10;17.60;99.90
29731;DHT22;16639;51.488;0.152;2023-05-14T14:48:37;17.70;99.90
29731;DHT22;16639;51.488;0.152;2023-05-14T14:51:06;17.80;99.90
29731;DHT22;16639;51.488;0.152;2023-05-14T14:53:36;17.80;99.90
29731;DHT22;16639;51.488;0.152;2023-05-14T14:56:04;17.90;99.90
29731;DHT22;16639;51.488;0.152;2023-05-14T14:58:31;17.90;99.90
29731;DHT22;16639;51.488;0.152;2023-05-14T15:00:59;18.00;99.90
29731;DHT22;16639;51.488;0.152;2023-05-14T15:03:27;18.00;99.90
29731;DHT22;16639;51.488;0.152;2023-05-14T15:05:55;18.00;99.90
29731;DHT22;16639;51.488;0.152;2023-05-14T15:08:25;18.00;99.90
29731;DHT22;16639;51.488;0.152;2023-05-14T15:10:54;18.10;99.90
29731;DHT22;16639;51.488;0.152;2023-05-14T15:13:22;18.20;99.90
29731;DHT22;16639;51.488;0.152;2023-05-14T15:15:51;18.20;99.90
29731;DHT22;16639;51.488;0.152;2023-05-14T15:18:19;18.30;99.90
29731;DHT22;16639;51.488;0.152;2023-05-14T15:20:46;18.40;99.90
29731;DHT22;16639;51.488;0.152;2023-05-14T15:23:14;18.50;99.90
29731;DHT22;16639;51.488;0.152;2023-05-14T15:25:41;18.50;99.90
29731;DHT22;16639;51.488;0.152;2023-05-14T15:28:09;18.50;99.90
29731;DHT22;16639;51.488;0.152;2023-05-14T15:30:37;18.60;99.90
29731;DHT22;16639;51.488;0.152;2023-05-14T15:33:06;18.60;99.90
29731;DHT22;16639;51.488;0.152;2023-05-14T15:35:36;18.60;99.90
29731;DHT22;16639;51.488;0.152;2023-05-14T15:38:03;18.60;99.90
29731;DHT22;16639;51.488;0.152;2023-05-14T15:40:39;18.60;99.90
29731;DHT22;16639;51.488;0.152;2023-05-14T15:43:07;18.60;99.90
29731;DHT22;16639;51.488;0.152;2023-05-14T15:45:35;18.60;99.90